Time;durP1;ratioP1;P1;durP2;ratioP2;P2;SDS_P1;SDS_P2;PMS_P1;PMS_P2;Temp;Humidity;BMP_temperature;BMP_pressure;BME280_temperature;BME280_humidity;BME280_pressure;Samples;Min_cycle;Max_cycle;Signal;HPM_P1;HPM_P2
2023/03/02 00:02:09;;;;;;;27.08;9.98;;;2.80;86.10;;;;;;6139619;23;20002;-81
2023/03/02 00:04:44;;;;;;;21.50;9.00;;;2.80;85.30;;;;;;6147443;23;19998;-82
2023/03/02 00:07:16;;;;;;;24.52;9.07;;;2.80;84.70;;;;;;6171830;23;20025;-82
2023/03/02 00:09:45;;;;;;;25.80;9.25;;;2.80;84.10;;;;;;6170901;23;20073;-82
2023/03/02 00:12:13;;;;;;;22.33;8.95;;;2.80;83.70;;;;;;6122782;23;20040;-82
2023/03/02 00:14:43;;;;;;;28.65;9.88;;;2.80;83.30;;;;;;6170031;23;20021;-82
2023/03/02 00:17:10;;;;;;;23.00;8.98;;;2.80;83.10;;;;;;6145310;23;20021;-82
2023/03/02 00:19:39;;;;;;;28.88;9.27;;;2.80;82.90;;;;;;6121967;23;20060;-82
2023/03/02 00:22:06;;;;;;;21.75;8.90;;;2.80;82.60;;;;;;6138121;23;20077;-81
2023/03/02 00:24:36;;;;;;;23.40;8.63;;;2.70;82.20;;;;;;6109695;23;20014;-81
2023/03/02 00:27:05;;;;;;;25.50;9.57;;;2.70;82.30;;;;;;6111017;23;20106;-82
2023/03/02 00:29:32;;;;;;;28.50;10.00;;;2.70;82.40;;;;;;6110863;23;20023;-81
2023/03/02 00:32:02;;;;;;;23.35;9.02;;;2.70;83.20;;;;;;6082565;23;20109;-82
2023/03/02 00:34:31;;;;;;;27.55;9.30;;;2.70;82.90;;;;;;6081453;23;20027;-82
2023/03/02 00:37:00;;;;;;;28.40;11.05;;;2.70;82.70;;;;;;6056701;23;20033;-81
2023/03/02 00:39:29;;;;;;;26.27;10.02;;;2.70;83.50;;;;;;6031145;23;20050;-82
2023/03/02 00:41:56;;;;;;;27.10;10.68;;;2.60;84.10;;;;;;6080031;23;20018;-82
2023/03/02 00:44:24;;;;;;;25.58;10.25;;;2.60;84.00;;;;;;6055267;23;20170;-82
2023/03/02 00:46:51;;;;;;;29.73;10.30;;;2.60;84.10;;;;;;6024315;23;20023;-82
2023/03/02 00:49:19;;;;;;;29.42;10.02;;;2.60;83.60;;;;;;6021913;23;20027;-81
2023/03/02 00:51:46;;;;;;;28.95;10.90;;;2.60;84.90;;;;;;6017963;23;20023;-81
2023/03/02 00:54:13;;;;;;;25.15;10.82;;;2.50;84.00;;;;;;5992687;24;20388;-81
2023/03/02 00:56:41;;;;;;;25.23;9.90;;;2.50;84.10;;;;;;5992382;24;20090;-81
2023/03/02 00:59:25;;;;;;;22.27;9.02;;;2.40;84.60;;;;;;6001411;23;20115;-81
2023/03/02 01:02:28;;;;;;;31.83;10.77;;;2.50;85.20;;;;;;5938259;24;20029;-81
2023/03/02 01:04:56;;;;;;;28.40;10.50;;;2.40;85.00;;;;;;5986247;23;20023;-81
2023/03/02 01:07:27;;;;;;;26.20;9.77;;;2.40;84.20;;;;;;6020965;23;20043;-81
2023/03/02 01:09:54;;;;;;;27.58;9.65;;;2.30;84.20;;;;;;6021931;23;20019;-82
2023/03/02 01:12:22;;;;;;;24.77;9.05;;;2.30;84.60;;;;;;6055193;23;20041;-82
2023/03/02 01:14:49;;;;;;;27.17;8.70;;;2.30;83.90;;;;;;6056224;23;20143;-81
2023/03/02 01:17:18;;;;;;;26.52;8.35;;;2.30;83.40;;;;;;6042005;23;20026;-82
2023/03/02 01:19:45;;;;;;;23.05;9.35;;;2.30;83.30;;;;;;6085280;23;20033;-81
2023/03/02 01:22:12;;;;;;;26.63;9.07;;;2.30;82.80;;;;;;6084953;23;20022;-81
2023/03/02 01:24:44;;;;;;;21.48;8.23;;;2.20;82.90;;;;;;6109640;23;20093;-82
2023/03/02 01:27:18;;;;;;;21.27;7.32;;;2.30;83.30;;;;;;6110752;23;20015;-81
2023/03/02 01:29:45;;;;;;;28.50;8.85;;;2.20;83.40;;;;;;6084796;23;20081;-82
2023/03/02 01:32:12;;;;;;;19.05;7.32;;;2.30;83.60;;;;;;6107701;23;20026;-82
2023/03/02 01:34:40;;;;;;;21.83;7.60;;;2.20;84.00;;;;;;6108179;23;20086;-81
2023/03/02 01:37:07;;;;;;;20.85;6.85;;;2.20;83.90;;;;;;6132967;23;20025;-81
2023/03/02 01:39:34;;;;;;;21.30;7.30;;;2.20;83.80;;;;;;6108363;23;20078;-81
2023/03/02 01:42:03;;;;;;;22.23;7.75;;;2.20;84.20;;;;;;6108610;23;20038;-82
2023/03/02 01:44:41;;;;;;;24.52;8.77;;;2.20;84.30;;;;;;6109719;23;20089;-81
2023/03/02 01:47:21;;;;;;;21.77;7.88;;;2.20;84.60;;;;;;6111016;23;20014;-81
2023/03/02 01:50:05;;;;;;;19.05;7.45;;;2.10;84.80;;;;;;6089728;23;20054;-81
2023/03/02 01:52:37;;;;;;;22.45;7.85;;;2.10;85.50;;;;;;6099065;23;20036;-81
2023/03/02 01:55:10;;;;;;;20.58;7.60;;;2.10;85.70;;;;;;6139321;23;20073;-82
2023/03/02 01:57:42;;;;;;;21.98;7.65;;;2.10;85.90;;;;;;6164996;23;20022;-81
2023/03/02 02:00:18;;;;;;;21.63;8.15;;;2.10;86.10;;;;;;6138975;23;20406;-81
2023/03/02 02:02:49;;;;;;;19.73;8.48;;;2.10;86.10;;;;;;6138429;23;20042;-81
2023/03/02 02:05:22;;;;;;;29.88;9.32;;;2.20;86.90;;;;;;6162302;23;20037;-81
2023/03/02 02:07:50;;;;;;;23.35;8.48;;;2.10;86.50;;;;;;6137165;23;20386;-81
2023/03/02 02:10:17;;;;;;;25.13;8.98;;;2.20;87.00;;;;;;6163420;23;20046;-82
2023/03/02 02:13:08;;;;;;;26.92;9.63;;;2.10;86.80;;;;;;6157870;23;20065;-82
2023/03/02 02:15:37;;;;;;;23.65;9.18;;;2.10;86.80;;;;;;6137696;23;20080;-82
2023/03/02 02:18:06;;;;;;;22.67;8.27;;;2.00;86.80;;;;;;6089533;23;20037;-82
2023/03/02 02:20:44;;;;;;;21.73;8.07;;;2.00;86.80;;;;;;6138851;23;20026;-81
2023/03/02 02:23:35;;;;;;;17.50;8.07;;;2.00;86.80;;;;;;6113673;23;20108;-82
2023/03/02 02:26:26;;;;;;;17.17;7.05;;;2.10;87.00;;;;;;6137687;23;20066;-81
2023/03/02 02:29:12;;;;;;;21.60;8.00;;;2.00;86.70;;;;;;6112315;23;20110;-81
2023/03/02 02:31:50;;;;;;;21.00;7.18;;;2.10;87.00;;;;;;6136630;23;20014;-82
2023/03/02 02:34:29;;;;;;;24.65;7.90;;;2.00;87.00;;;;;;6112436;23;20354;-82
2023/03/02 02:37:13;;;;;;;26.35;9.02;;;2.10;87.60;;;;;;6137033;23;20002;-82
2023/03/02 02:39:45;;;;;;;28.25;9.48;;;2.10;88.00;;;;;;6137437;23;20017;-82
2023/03/02 02:42:18;;;;;;;;;;;2.00;88.40;;;;;;6136967;23;20018;-81
2023/03/02 02:44:46;;;;;;;25.80;9.35;;;2.00;88.80;;;;;;6155804;23;19920;-81
2023/03/02 02:47:17;;;;;;;26.15;8.70;;;2.10;89.20;;;;;;6138013;23;20041;-81
2023/03/02 02:49:46;;;;;;;23.38;8.65;;;2.00;89.20;;;;;;6137954;23;20021;-81
2023/03/02 02:52:17;;;;;;;31.90;10.60;;;2.00;89.50;;;;;;6162226;23;20010;-81
2023/03/02 02:54:50;;;;;;;23.75;9.07;;;2.00;89.80;;;;;;6137310;23;20034;-81
2023/03/02 02:57:23;;;;;;;26.33;9.40;;;2.00;90.00;;;;;;6162035;23;20033;-81
2023/03/02 02:59:54;;;;;;;24.67;9.32;;;2.00;90.00;;;;;;6136117;23;20024;-81
2023/03/02 03:02:24;;;;;;;25.08;9.85;;;2.00;90.20;;;;;;6135483;23;20802;-81
2023/03/02 03:05:01;;;;;;;28.20;10.85;;;2.00;90.30;;;;;;6137818;23;20098;-82
2023/03/02 03:07:31;;;;;;;21.50;9.40;;;2.00;90.40;;;;;;6136305;23;20077;-81
2023/03/02 03:10:23;;;;;;;24.75;9.82;;;1.90;90.30;;;;;;6161786;23;20018;-81
2023/03/02 03:12:50;;;;;;;25.27;9.02;;;1.90;90.70;;;;;;6112852;23;20057;-81
2023/03/02 03:15:20;;;;;;;24.73;9.65;;;1.90;90.90;;;;;;6139632;23;20054;-81
2023/03/02 03:17:54;;;;;;;26.58;10.10;;;1.90;91.00;;;;;;6161338;23;20067;-81
2023/03/02 03:20:22;;;;;;;25.10;8.68;;;1.90;91.20;;;;;;6137192;23;20026;-81
2023/03/02 03:22:52;;;;;;;26.00;10.20;;;1.80;91.30;;;;;;6162000;23;20010;-81
2023/03/02 03:25:25;;;;;;;25.45;9.45;;;1.80;91.30;;;;;;6138282;23;20021;-81
2023/03/02 03:27:54;;;;;;;29.00;10.02;;;1.80;91.40;;;;;;6137606;23;20021;-81
2023/03/02 03:30:21;;;;;;;24.85;9.65;;;1.70;91.70;;;;;;6138007;23;20013;-81
2023/03/02 03:32:49;;;;;;;23.60;10.55;;;1.70;91.80;;;;;;6163506;23;20029;-81
2023/03/02 03:35:16;;;;;;;22.63;9.23;;;1.70;91.90;;;;;;6136809;23;20018;-81
2023/03/02 03:37:44;;;;;;;26.42;10.55;;;1.70;91.90;;;;;;6161558;23;20029;-81
2023/03/02 03:40:13;;;;;;;21.98;8.75;;;1.60;92.10;;;;;;6138464;23;20022;-81
2023/03/02 03:42:43;;;;;;;25.67;9.95;;;1.60;92.30;;;;;;6161693;23;20022;-81
2023/03/02 03:45:11;;;;;;;25.38;8.88;;;1.60;92.60;;;;;;6161172;23;20104;-81
2023/03/02 03:47:39;;;;;;;24.85;9.52;;;1.60;92.60;;;;;;6161607;23;20082;-81
2023/03/02 03:50:08;;;;;;;27.38;10.68;;;1.50;92.50;;;;;;6161583;23;20017;-81
2023/03/02 03:52:35;;;;;;;30.85;10.60;;;1.50;92.50;;;;;;6137325;23;20064;-81
2023/03/02 03:55:30;;;;;;;31.25;11.27;;;1.50;92.70;;;;;;6135207;23;20026;-81
2023/03/02 03:57:59;;;;;;;27.67;10.50;;;1.40;92.70;;;;;;6137316;23;20030;-81
2023/03/02 04:00:27;;;;;;;23.65;11.27;;;1.40;92.70;;;;;;6136684;23;20477;-81
2023/03/02 04:03:00;;;;;;;29.85;11.40;;;1.40;93.30;;;;;;6138310;23;20041;-81
2023/03/02 04:05:29;;;;;;;25.70;10.75;;;1.30;93.30;;;;;;6137579;23;20041;-81
2023/03/02 04:08:00;;;;;;;27.70;10.48;;;1.30;93.40;;;;;;6138719;23;20723;-81
2023/03/02 04:10:29;;;;;;;30.92;11.30;;;1.30;93.30;;;;;;6113524;23;20018;-81
2023/03/02 04:12:56;;;;;;;28.40;11.55;;;1.30;93.20;;;;;;6137000;23;20018;-81
2023/03/02 04:15:24;;;;;;;25.80;10.82;;;1.20;93.20;;;;;;6113642;23;20026;-81
2023/03/02 04:17:51;;;;;;;25.83;10.30;;;1.20;93.20;;;;;;6138417;23;20022;-81
2023/03/02 04:20:22;;;;;;;26.10;10.25;;;1.20;93.50;;;;;;6137768;23;20113;-81
2023/03/02 04:22:54;;;;;;;34.08;10.57;;;1.20;93.90;;;;;;6137563;23;20026;-81
2023/03/02 04:25:29;;;;;;;26.35;10.00;;;1.20;93.90;;;;;;6138301;23;20014;-81
2023/03/02 04:28:02;;;;;;;24.73;10.38;;;1.20;94.00;;;;;;6140339;23;20018;-82
2023/03/02 04:30:34;;;;;;;26.65;9.80;;;1.10;94.10;;;;;;6137573;23;20026;-81
2023/03/02 04:33:01;;;;;;;28.77;10.05;;;1.10;94.30;;;;;;6162470;23;20017;-81
2023/03/02 04:35:29;;;;;;;30.35;10.98;;;1.10;94.40;;;;;;6138498;23;20022;-81
2023/03/02 04:37:58;;;;;;;29.05;12.65;;;1.10;94.20;;;;;;6138076;23;20074;-81
2023/03/02 04:40:25;;;;;;;33.53;12.30;;;1.10;94.20;;;;;;6137750;23;20046;-81
2023/03/02 04:42:53;;;;;;;37.70;13.38;;;1.10;94.30;;;;;;6163524;23;20026;-81
2023/03/02 04:45:20;;;;;;;34.28;13.07;;;1.10;94.60;;;;;;6138079;23;20021;-81
2023/03/02 04:47:47;;;;;;;45.35;16.83;;;1.10;94.60;;;;;;6137334;23;20057;-81
2023/03/02 04:50:15;;;;;;;33.72;13.07;;;1.10;94.60;;;;;;6139107;23;20014;-81
2023/03/02 04:52:42;;;;;;;32.55;13.23;;;1.10;94.60;;;;;;6132439;23;20030;-81
2023/03/02 04:55:18;;;;;;;32.22;12.02;;;1.10;94.60;;;;;;6083785;23;20019;-81
2023/03/02 04:57:48;;;;;;;35.63;12.70;;;1.10;94.80;;;;;;6133678;23;20022;-81
2023/03/02 05:00:18;;;;;;;29.98;12.43;;;1.10;94.60;;;;;;6132518;23;20081;-81
2023/03/02 05:02:47;;;;;;;69.75;14.50;;;1.10;94.50;;;;;;6132034;23;20026;-81
2023/03/02 05:05:23;;;;;;;35.58;13.05;;;1.10;94.30;;;;;;6109695;23;20041;-81
2023/03/02 05:07:51;;;;;;;32.92;12.48;;;1.10;94.20;;;;;;6108337;23;20069;-81
2023/03/02 05:10:19;;;;;;;37.72;13.73;;;1.10;94.40;;;;;;6133943;23;20014;-81
2023/03/02 05:13:04;;;;;;;35.38;12.95;;;1.10;94.40;;;;;;6133054;23;20029;-81
2023/03/02 05:15:39;;;;;;;34.97;13.60;;;1.10;94.30;;;;;;6108333;23;20340;-81
2023/03/02 05:18:09;;;;;;;38.47;13.02;;;1.00;94.10;;;;;;6134275;23;20018;-81
2023/03/02 05:20:37;;;;;;;39.63;15.45;;;1.00;94.10;;;;;;6134876;23;20050;-81
2023/03/02 05:23:07;;;;;;;38.50;13.45;;;1.00;94.10;;;;;;6135276;23;20042;-81
2023/03/02 05:25:35;;;;;;;37.85;12.57;;;1.00;94.50;;;;;;6133658;23;20026;-81
2023/03/02 05:28:04;;;;;;;33.75;13.07;;;1.00;94.80;;;;;;6134812;23;20014;-81
2023/03/02 05:30:36;;;;;;;37.05;12.95;;;1.00;94.80;;;;;;6134511;23;20018;-81
2023/03/02 05:33:03;;;;;;;30.60;12.60;;;1.00;94.80;;;;;;6134934;23;20030;-81
2023/03/02 05:35:30;;;;;;;37.53;13.95;;;1.00;94.70;;;;;;6134455;23;20018;-81
2023/03/02 05:37:58;;;;;;;36.33;13.93;;;1.00;94.80;;;;;;6109998;23;20451;-81
2023/03/02 05:40:25;;;;;;;28.15;11.63;;;1.00;94.90;;;;;;6135074;23;20073;-81
2023/03/02 05:42:52;;;;;;;32.55;12.98;;;1.00;94.90;;;;;;6134467;23;20032;-81
2023/03/02 05:45:31;;;;;;;32.72;13.77;;;0.90;95.40;;;;;;6135222;23;20015;-82
2023/03/02 05:47:58;;;;;;;36.60;14.43;;;0.90;95.30;;;;;;6135159;23;20027;-81
2023/03/02 05:50:26;;;;;;;41.08;14.98;;;0.90;95.20;;;;;;6136725;23;20014;-81
2023/03/02 05:52:53;;;;;;;37.72;13.93;;;0.90;95.00;;;;;;6134747;23;20086;-81
2023/03/02 05:55:21;;;;;;;38.22;13.60;;;0.90;95.20;;;;;;6135002;23;20029;-80
2023/03/02 05:57:48;;;;;;;38.60;14.13;;;1.00;95.50;;;;;;6109645;23;20113;-81
2023/03/02 06:00:17;;;;;;;36.03;14.13;;;1.00;95.50;;;;;;6112567;23;20034;-81
2023/03/02 06:02:45;;;;;;;39.53;13.10;;;1.00;95.80;;;;;;6109454;23;20018;-81
2023/03/02 06:05:15;;;;;;;45.38;15.63;;;1.00;95.70;;;;;;6138185;23;20084;-80
2023/03/02 06:07:43;;;;;;;34.80;15.35;;;1.00;95.40;;;;;;6136431;23;20014;-81
2023/03/02 06:10:12;;;;;;;34.67;14.48;;;1.00;95.30;;;;;;6135352;23;20062;-81
2023/03/02 06:12:39;;;;;;;31.92;13.77;;;1.10;95.50;;;;;;6134257;23;20018;-81
2023/03/02 06:15:08;;;;;;;29.00;12.32;;;1.20;95.40;;;;;;6088586;23;20014;-81
2023/03/02 06:17:35;;;;;;;27.60;11.10;;;1.10;95.20;;;;;;6140485;23;20022;-82
2023/03/02 06:20:09;;;;;;;34.78;11.20;;;1.20;95.20;;;;;;6139347;23;20019;-82
2023/03/02 06:22:41;;;;;;;28.08;11.38;;;1.30;95.10;;;;;;6139446;23;20014;-81
2023/03/02 06:25:17;;;;;;;30.40;11.77;;;1.40;95.00;;;;;;6138090;23;20042;-83
2023/03/02 06:27:45;;;;;;;30.88;11.65;;;1.50;94.70;;;;;;6136699;23;20055;-81
2023/03/02 06:30:17;;;;;;;43.47;14.07;;;1.60;94.50;;;;;;6111736;23;20022;-81
2023/03/02 06:32:44;;;;;;;35.17;13.45;;;1.70;94.40;;;;;;6135576;23;20022;-81
2023/03/02 06:35:13;;;;;;;37.20;13.00;;;1.70;94.20;;;;;;6134434;23;20086;-81
2023/03/02 06:37:40;;;;;;;39.88;14.07;;;1.80;94.10;;;;;;6134305;23;20447;-81
2023/03/02 06:40:12;;;;;;;44.03;13.85;;;1.80;93.90;;;;;;6132578;23;20014;-81
2023/03/02 06:42:42;;;;;;;37.28;14.52;;;1.90;93.70;;;;;;6131602;23;20024;-81
2023/03/02 06:45:10;;;;;;;40.22;13.45;;;2.00;93.50;;;;;;6106212;23;20018;-81
2023/03/02 06:47:37;;;;;;;35.47;13.82;;;2.10;93.40;;;;;;6101951;23;20023;-81
2023/03/02 06:50:05;;;;;;;30.38;11.90;;;2.20;93.50;;;;;;6099008;23;20359;-81
2023/03/02 06:52:33;;;;;;;36.15;14.10;;;2.20;92.50;;;;;;6126299;23;20027;-81
2023/03/02 06:55:01;;;;;;;33.22;13.55;;;2.30;92.90;;;;;;6129643;23;20030;-81
2023/03/02 06:57:32;;;;;;;40.33;15.35;;;2.30;93.50;;;;;;6103249;23;20022;-81
2023/03/02 07:00:05;;;;;;;38.47;16.48;;;2.40;93.60;;;;;;6131026;23;20030;-81
2023/03/02 07:02:32;;;;;;;40.53;14.73;;;2.60;92.90;;;;;;6138654;23;20037;-81
2023/03/02 07:05:00;;;;;;;37.45;14.85;;;2.50;91.50;;;;;;6111026;23;20022;-81
2023/03/02 07:07:27;;;;;;;35.05;13.43;;;2.70;91.10;;;;;;6109241;23;20026;-81
2023/03/02 07:09:54;;;;;;;28.10;12.02;;;2.80;90.80;;;;;;6115390;23;20430;-81
2023/03/02 08:55:19;;;;;;;8.18;3.10;;;6.90;68.90;;;;;;6216278;23;20032;-82
2023/03/02 10:29:41;;;;;;;10.00;4.40;;;9.50;72.10;;;;;;6186486;22;20035;31
2023/03/02 11:21:26;;;;;;;32.33;10.55;;;10.80;73.60;;;;;;6206701;22;20522;-80
2023/03/02 12:59:57;;;;;;;14.57;8.48;;;11.70;70.50;;;;;;6184470;22;20058;31
2023/03/02 19:14:43;;;;;;;36.80;16.27;;;5.50;95.80;;;;;;6208580;23;20022;-82
2023/03/02 19:17:13;;;;;;;33.88;15.10;;;5.50;95.80;;;;;;6206748;23;20160;-82
2023/03/02 19:19:44;;;;;;;40.60;17.17;;;5.40;95.90;;;;;;6207089;23;20058;-82
2023/03/02 19:22:15;;;;;;;46.67;19.25;;;5.40;96.00;;;;;;6205616;23;20023;-82
2023/03/02 19:24:45;;;;;;;50.30;19.90;;;5.40;96.20;;;;;;6207881;23;20020;-81
2023/03/02 19:27:14;;;;;;;47.15;18.35;;;5.40;96.50;;;;;;6205413;23;20020;-81
2023/03/02 19:29:44;;;;;;;41.35;18.20;;;5.30;96.60;;;;;;6231160;23;20027;-82
2023/03/02 19:32:13;;;;;;;38.45;16.30;;;5.30;96.80;;;;;;6206087;23;20020;-82
2023/03/02 19:34:43;;;;;;;39.40;16.92;;;5.30;97.00;;;;;;6230242;23;20617;-82
2023/03/02 19:37:11;;;;;;;41.05;17.30;;;5.30;97.40;;;;;;6204383;23;20020;-82
2023/03/02 19:39:39;;;;;;;45.53;17.92;;;5.20;97.50;;;;;;6203626;23;20024;-81
2023/03/02 19:42:08;;;;;;;52.38;20.67;;;5.20;97.50;;;;;;6203733;23;20027;-81
2023/03/02 19:44:37;;;;;;;53.40;18.40;;;5.20;97.50;;;;;;6203588;23;20073;-82
2023/03/02 19:47:11;;;;;;;46.15;21.38;;;5.20;97.90;;;;;;6204825;23;20020;-81
2023/03/02 19:49:40;;;;;;;52.55;22.48;;;5.10;98.40;;;;;;6206227;23;20032;-81
2023/03/02 19:52:09;;;;;;;45.05;19.83;;;5.10;98.70;;;;;;6204643;23;20024;-82
2023/03/02 19:54:37;;;;;;;58.97;25.15;;;5.10;98.80;;;;;;6204750;23;20047;-82
2023/03/02 19:57:06;;;;;;;49.60;24.45;;;5.10;98.70;;;;;;6202784;23;20043;-82
2023/03/02 19:59:35;;;;;;;55.92;24.95;;;5.10;98.80;;;;;;6203504;23;20024;-82
2023/03/02 20:02:03;;;;;;;49.33;20.42;;;5.00;99.00;;;;;;6202897;23;20031;-82
2023/03/02 20:04:33;;;;;;;54.15;19.95;;;5.00;99.30;;;;;;6202273;23;20120;-82
2023/03/02 20:07:01;;;;;;;45.42;18.38;;;5.00;99.60;;;;;;6203600;23;20344;-82
2023/03/02 20:09:30;;;;;;;48.88;21.42;;;4.90;99.60;;;;;;6203366;23;20429;-82
2023/03/02 20:12:01;;;;;;;41.67;16.85;;;4.90;99.80;;;;;;6203661;23;20732;-82
2023/03/02 20:14:33;;;;;;;41.90;18.35;;;4.90;99.90;;;;;;6226674;23;20127;-82
2023/03/02 20:17:03;;;;;;;43.47;17.77;;;4.80;99.90;;;;;;6202778;23;20052;-82
2023/03/02 20:19:34;;;;;;;;;;;4.80;99.90;;;;;;6203283;23;20022;-82
2023/03/02 20:22:05;;;;;;;42.25;16.10;;;4.80;99.90;;;;;;6202462;23;20270;-82
2023/03/02 20:24:34;;;;;;;48.88;17.63;;;4.70;99.90;;;;;;6179032;23;20726;-82
2023/03/02 20:27:05;;;;;;;40.33;17.70;;;4.70;99.90;;;;;;6204715;23;20020;-82
2023/03/02 20:29:36;;;;;;;45.35;18.13;;;4.70;99.90;;;;;;6205429;23;20470;-82
2023/03/02 20:32:07;;;;;;;39.88;16.55;;;4.70;99.90;;;;;;6203618;23;20012;-81
2023/03/02 20:34:37;;;;;;;39.25;16.95;;;4.60;99.90;;;;;;6204014;23;20016;-81
2023/03/02 20:37:07;;;;;;;48.40;18.63;;;4.60;99.90;;;;;;6203418;23;20102;-81
2023/03/02 20:39:38;;;;;;;51.40;20.52;;;4.60;99.90;;;;;;6203704;23;20111;-81
2023/03/02 20:42:07;;;;;;;44.40;18.13;;;4.50;99.90;;;;;;6202953;23;20024;-81
2023/03/02 20:44:36;;;;;;;62.10;24.73;;;4.50;99.90;;;;;;6203540;23;20020;-81
2023/03/02 20:47:08;;;;;;;65.15;23.85;;;4.50;99.90;;;;;;6204000;23;20032;-82
2023/03/02 20:49:38;;;;;;;56.17;26.52;;;4.50;99.90;;;;;;6169261;23;20029;-81
2023/03/02 20:52:08;;;;;;;64.60;25.15;;;4.40;99.90;;;;;;6144798;23;20017;-81
2023/03/02 20:54:40;;;;;;;73.38;27.17;;;4.40;99.90;;;;;;6146510;23;20048;-81
2023/03/02 20:57:15;;;;;;;70.15;24.63;;;4.30;99.90;;;;;;6138486;23;20792;-81
2023/03/02 20:59:47;;;;;;;69.90;26.02;;;4.30;99.90;;;;;;6135272;23;20021;-81
2023/03/02 21:02:18;;;;;;;72.00;26.77;;;4.30;99.90;;;;;;6134664;23;20026;-81
2023/03/02 21:04:46;;;;;;;72.70;26.90;;;4.30;99.90;;;;;;6134582;23;20108;-81
2023/03/02 21:07:15;;;;;;;82.18;31.38;;;4.30;99.90;;;;;;6076336;23;20019;-82
2023/03/02 21:09:44;;;;;;;83.65;31.67;;;4.20;99.90;;;;;;6076877;23;20048;-81
2023/03/02 21:12:11;;;;;;;78.13;29.58;;;4.20;99.90;;;;;;6077260;23;20003;-81
2023/03/02 21:14:39;;;;;;;74.22;29.67;;;4.20;99.90;;;;;;6076502;23;20037;-81
2023/03/02 21:17:08;;;;;;;74.95;29.27;;;4.20;99.90;;;;;;6075816;23;20482;-81
2023/03/02 21:19:36;;;;;;;71.00;30.70;;;4.20;99.90;;;;;;6054925;23;20118;-81
2023/03/02 21:22:05;;;;;;;70.75;28.67;;;4.10;99.90;;;;;;6077844;23;20030;-81
2023/03/02 21:24:33;;;;;;;80.50;28.55;;;4.10;99.90;;;;;;6077054;23;20038;-81
2023/03/02 21:27:01;;;;;;;79.30;28.65;;;4.10;99.90;;;;;;6102081;23;20014;-81
2023/03/02 21:29:29;;;;;;;72.88;28.27;;;4.10;99.90;;;;;;6165501;23;20056;-81
2023/03/02 21:31:58;;;;;;;95.40;33.38;;;4.10;99.90;;;;;;6140736;23;20029;-80
2023/03/02 21:34:27;;;;;;;108.47;36.92;;;4.00;99.90;;;;;;6165912;23;20441;-82
2023/03/02 21:36:56;;;;;;;119.88;39.28;;;4.00;99.90;;;;;;6140849;23;20017;-81
2023/03/02 21:39:24;;;;;;;139.27;43.13;;;4.00;99.90;;;;;;6203909;23;20016;-82
2023/03/02 21:41:53;;;;;;;112.47;35.35;;;3.90;99.90;;;;;;6208141;23;20024;-81
2023/03/02 21:44:21;;;;;;;110.63;34.97;;;4.00;99.90;;;;;;6207165;23;20111;-83
2023/03/02 21:46:49;;;;;;;110.40;36.83;;;3.90;99.90;;;;;;6207554;23;20051;-81
2023/03/02 21:49:19;;;;;;;106.13;35.60;;;3.90;99.90;;;;;;6207913;23;20012;-81
2023/03/02 21:51:47;;;;;;;109.80;36.75;;;3.90;99.90;;;;;;6208503;23;20077;-81
2023/03/02 21:54:16;;;;;;;112.10;41.53;;;3.90;99.90;;;;;;6207673;23;20107;-81
2023/03/02 21:56:43;;;;;;;124.97;40.30;;;3.90;99.90;;;;;;6208946;23;20016;-81
2023/03/02 21:59:11;;;;;;;115.18;38.88;;;3.80;99.90;;;;;;6208249;23;20049;-81
2023/03/02 22:01:38;;;;;;;121.00;40.70;;;3.80;99.90;;;;;;6206842;23;20108;-81
2023/03/02 22:04:06;;;;;;;116.15;39.28;;;3.80;99.90;;;;;;6207809;23;20016;-81
2023/03/02 22:06:34;;;;;;;118.22;39.05;;;3.80;99.90;;;;;;6207725;23;20020;-81
2023/03/02 22:09:02;;;;;;;111.97;36.97;;;3.70;99.90;;;;;;6207228;23;20020;-82
2023/03/02 22:11:33;;;;;;;127.05;40.15;;;3.70;99.90;;;;;;6207701;23;20336;-82
2023/03/02 22:14:11;;;;;;;104.88;36.22;;;3.70;99.90;;;;;;6207736;23;20024;-81
2023/03/02 22:16:43;;;;;;;107.03;38.97;;;3.60;99.90;;;;;;6207681;23;20435;-81
2023/03/02 22:19:24;;;;;;;102.53;36.67;;;3.60;99.90;;;;;;6207553;23;20020;-81
2023/03/02 22:21:55;;;;;;;94.32;32.60;;;3.60;99.90;;;;;;6208905;23;20743;-81
2023/03/02 22:24:25;;;;;;;95.20;35.90;;;3.60;99.90;;;;;;6208391;23;20016;-81
2023/03/02 22:27:15;;;;;;;96.00;34.03;;;3.60;99.90;;;;;;6208985;23;20055;-81
2023/03/02 22:29:44;;;;;;;94.20;33.95;;;3.60;99.90;;;;;;6208158;23;20020;-81
2023/03/02 22:32:27;;;;;;;84.18;31.65;;;3.60;99.90;;;;;;6208918;23;20016;-81
2023/03/02 22:34:59;;;;;;;54.97;21.38;;;3.50;99.90;;;;;;6208948;23;20016;-81
2023/03/02 22:37:33;;;;;;;72.03;26.85;;;3.60;99.90;;;;;;6196620;23;20033;-81
2023/03/02 22:40:06;;;;;;;78.03;26.50;;;3.50;99.90;;;;;;6172664;23;20032;-81
2023/03/02 22:42:34;;;;;;;57.85;23.15;;;3.50;99.90;;;;;;6171874;23;20041;-81
2023/03/02 22:45:13;;;;;;;56.30;20.00;;;3.50;99.90;;;;;;6172259;23;20040;-83
2023/03/02 22:47:41;;;;;;;63.38;23.83;;;3.50;99.90;;;;;;6172719;23;20089;-81
2023/03/02 22:50:25;;;;;;;61.10;24.30;;;3.40;99.90;;;;;;6172542;23;20025;-81
2023/03/02 22:52:55;;;;;;;59.22;22.38;;;3.40;99.90;;;;;;6172275;23;20017;-81
2023/03/02 22:55:42;;;;;;;52.83;20.65;;;3.40;99.90;;;;;;6171957;23;20352;-81
2023/03/02 22:58:34;;;;;;;45.80;18.98;;;3.40;99.90;;;;;;6171752;23;20017;-81
2023/03/02 23:01:12;;;;;;;62.40;19.30;;;3.40;99.90;;;;;;6171750;23;20084;-82
2023/03/02 23:03:43;;;;;;;48.25;18.45;;;3.40;99.90;;;;;;6169249;23;20047;-81
2023/03/02 23:06:21;;;;;;;44.75;18.92;;;3.30;99.90;;;;;;6170650;23;20037;-81
2023/03/02 23:08:50;;;;;;;54.75;19.45;;;3.30;99.90;;;;;;6208373;23;20098;-81
2023/03/02 23:11:20;;;;;;;47.45;17.80;;;3.30;99.90;;;;;;6206881;23;20020;-81
2023/03/02 23:13:49;;;;;;;45.38;16.45;;;3.30;99.90;;;;;;6230038;23;20083;-81
2023/03/02 23:16:24;;;;;;;44.28;16.60;;;3.30;99.90;;;;;;6207031;23;20031;-81
2023/03/02 23:18:58;;;;;;;45.00;16.50;;;3.30;99.90;;;;;;6207682;23;20016;-81
2023/03/02 23:21:31;;;;;;;43.30;17.10;;;3.30;99.90;;;;;;6207211;23;20046;-81
2023/03/02 23:24:00;;;;;;;43.70;16.45;;;3.30;99.90;;;;;;6207612;23;20359;-81
2023/03/02 23:26:27;;;;;;;44.22;16.38;;;3.30;99.90;;;;;;6208981;23;20043;-81
2023/03/02 23:28:54;;;;;;;48.92;19.08;;;3.30;99.90;;;;;;6206910;23;20026;-81
2023/03/02 23:31:22;;;;;;;50.50;19.42;;;3.20;99.90;;;;;;6205362;23;20016;-81
2023/03/02 23:33:49;;;;;;;55.97;21.30;;;3.20;99.90;;;;;;6205152;23;20566;-81
2023/03/02 23:36:19;;;;;;;48.97;19.83;;;3.20;99.90;;;;;;6206702;23;20012;-81
2023/03/02 23:38:48;;;;;;;51.15;20.75;;;3.20;99.90;;;;;;6206527;23;20102;-81
2023/03/02 23:41:16;;;;;;;43.60;19.00;;;3.20;99.90;;;;;;6205859;23;20107;-81
2023/03/02 23:43:43;;;;;;;56.55;20.52;;;3.20;99.90;;;;;;6204941;23;20023;-81
2023/03/02 23:46:12;;;;;;;49.50;19.15;;;3.20;99.90;;;;;;6206135;23;20020;-81
2023/03/02 23:48:41;;;;;;;56.38;19.48;;;3.20;99.90;;;;;;6205943;23;20020;-81
2023/03/02 23:51:09;;;;;;;59.92;23.33;;;3.20;99.90;;;;;;6204672;23;20027;-81
2023/03/02 23:53:36;;;;;;;61.22;23.85;;;3.20;99.90;;;;;;6205053;23;20026;-81
2023/03/02 23:56:03;;;;;;;67.43;23.75;;;3.20;99.90;;;;;;6205319;23;20024;-81
2023/03/02 23:58:31;;;;;;;60.03;23.30;;;3.20;99.90;;;;;;6230190;23;20016;-82
